Bison, SD (57620)

4:06 PM MST on February 22, 2017 (GMT -0700)
MK6V5 | | Change Station

Elev 2781 ft 45.52 °N, 102.46 °W | Updated 19 minutes ago

Overcast
Overcast
32.0 °F
Feels Like 24 °F
N
10.0
Wind Variable Wind from North
Gusts 16.0 mph

Today
High -- | Low -- °F
--% Chance of Precip.
Yesterday
High -- | Low -- °F
Precip. -- in
Pressure 29.96 in
Visibility 3.0 miles
Clouds Overcast 1000 ft
Windchill 24 °F
Dew Point 30 °F
Humidity 92%
Rainfall 0.03 in
Snow Depth Not available.
6:39 AM 5:27 PM
Waning Crescent, 14% visible
METAR KHEI 222253Z AUTO 36014KT 3SM -SN BR OVC010 M01/M03 A2989 RMK AO2 SNB33 SLP144 P0000 T10061028
Pressure 29.96 in
Visibility 3.0 miles
Clouds Overcast 1000 ft
Windchill 24 °F
Dew Point 30 °F
Humidity 92%
Rainfall 0.03 in
Snow Depth Not available.
6:39 AM 5:27 PM
Waning Crescent, 14% visible
METAR KHEI 222253Z AUTO 36014KT 3SM -SN BR OVC010 M01/M03 A2989 RMK AO2 SNB33 SLP144 P0000 T10061028

Get Your Daily Forecast Email!

Thanks for signing up!

Be on the lookout for a verification email in your inbox.

You'll start receiving the daily forecast at 8 AM.

×

10-Day Weather Forecast

Almanac

Astronomy

Feb. 22, 2017 Rise Set
Actual Time
Civil Twilight
Nautical Twilight
Astronomical Twilight
Moon
Length of Visible Light
Length of Day
Tomorrow will be .
, % of the Moon is Illuminated

Today's Extremes

State Highs State Lows

Community

WunderPhotos

Upload Photos

1,962,540 photos uploaded!

WunderBlog® & News

Nearby

Air Quality

  Air Quality AQ Index Pollutant
Not available.

Snow Depth

Station Depth Elevation

Earthquake Activity

City Distance Mag. Time & Date
Minimum magnitude displayed is 2.5.

Coastal Water Temperatures

Place Temperature

Stations

Nearby Weather Stations

Station Location Temp. Windchill Dew Point Humidity Wind Precip. Elev Updated Type
                   

Watches & Warnings

There are currently no watches in effect.